createdAt,value
2022-07-26T00:01:20.715Z,94.37
2022-07-26T00:03:49.396Z,94.69
2022-07-26T00:06:19.086Z,94.57
2022-07-26T00:08:45.848Z,94.30
2022-07-26T00:11:12.607Z,95.38
2022-07-26T00:13:39.387Z,95.57
2022-07-26T00:16:06.690Z,95.32
2022-07-26T00:18:33.626Z,95.17
2022-07-26T00:21:00.205Z,95.17
2022-07-26T00:23:27.823Z,95.45
2022-07-26T00:25:54.423Z,95.39
2022-07-26T00:28:20.920Z,95.03
2022-07-26T00:30:47.529Z,95.47
2022-07-26T00:33:14.072Z,94.99
2022-07-26T00:35:40.766Z,95.57
2022-07-26T00:38:07.672Z,95.65
2022-07-26T00:40:35.869Z,95.63
2022-07-26T00:43:02.485Z,95.09
2022-07-26T00:45:28.982Z,95.00
2022-07-26T00:47:55.732Z,95.04
2022-07-26T00:50:22.333Z,95.97
2022-07-26T00:52:49.517Z,95.71
2022-07-26T00:55:17.289Z,95.73
2022-07-26T00:57:44.546Z,95.74
2022-07-26T01:00:15.008Z,95.68
2022-07-26T01:02:42.156Z,95.38
2022-07-26T01:05:09.097Z,96.22
2022-07-26T01:07:38.390Z,96.61
2022-07-26T01:10:12.055Z,96.21
2022-07-26T01:12:40.054Z,97.09
2022-07-26T01:15:07.906Z,96.04
2022-07-26T01:17:36.323Z,96.22
2022-07-26T01:20:07.543Z,96.19
2022-07-26T01:22:34.171Z,96.32
2022-07-26T01:25:00.870Z,96.95
2022-07-26T01:27:33.555Z,96.16
2022-07-26T01:30:00.811Z,95.40
2022-07-26T01:32:27.416Z,96.74
2022-07-26T01:34:54.167Z,95.98
2022-07-26T01:37:20.801Z,95.73
2022-07-26T01:39:47.345Z,95.98
2022-07-26T01:42:13.893Z,95.27
2022-07-26T01:44:40.701Z,95.27
2022-07-26T01:47:07.407Z,96.47
2022-07-26T01:49:33.952Z,95.81
2022-07-26T01:52:00.518Z,95.39
2022-07-26T01:54:27.101Z,95.67
2022-07-26T01:56:53.701Z,96.83
2022-07-26T01:59:20.287Z,96.06
2022-07-26T02:01:46.986Z,96.63
2022-07-26T02:04:33.665Z,96.15
2022-07-26T02:07:00.358Z,95.61
2022-07-26T02:09:33.014Z,95.86
2022-07-26T02:12:06.316Z,96.24
2022-07-26T02:14:32.857Z,95.53
2022-07-26T02:17:00.258Z,96.32
2022-07-26T02:19:28.819Z,95.88
2022-07-26T02:21:55.717Z,95.36
2022-07-26T02:24:22.559Z,96.06
2022-07-26T02:26:49.110Z,95.85
2022-07-26T02:29:16.047Z,96.22
2022-07-26T02:31:42.810Z,96.87
2022-07-26T02:34:15.189Z,96.99
2022-07-26T02:36:41.773Z,96.42
2022-07-26T02:39:08.429Z,96.67
2022-07-26T02:41:34.900Z,97.27
2022-07-26T02:44:02.853Z,97.43
2022-07-26T02:46:29.511Z,97.09
2022-07-26T02:48:56.108Z,96.66
2022-07-26T02:51:22.725Z,96.95
2022-07-26T02:53:49.318Z,95.96
2022-07-26T02:56:15.779Z,95.31
2022-07-26T02:58:42.399Z,95.09
2022-07-26T03:01:08.998Z,96.29
2022-07-26T03:03:36.404Z,95.24
2022-07-26T03:06:03.553Z,95.54
2022-07-26T03:08:30.098Z,95.65
2022-07-26T03:10:56.775Z,95.78
2022-07-26T03:13:23.462Z,95.98
2022-07-26T03:15:50.101Z,95.40
2022-07-26T03:18:16.736Z,95.76
2022-07-26T03:20:43.617Z,95.40
2022-07-26T03:23:10.152Z,95.79
2022-07-26T03:25:38.242Z,95.50
2022-07-26T03:28:04.934Z,95.42
2022-07-26T03:30:31.531Z,95.05
2022-07-26T03:32:58.019Z,94.30
2022-07-26T03:35:25.445Z,93.82
2022-07-26T03:37:52.541Z,93.18
2022-07-26T03:40:20.090Z,92.67
2022-07-26T03:42:47.848Z,93.22
2022-07-26T03:45:15.542Z,93.37
2022-07-26T03:47:42.446Z,92.75
2022-07-26T03:50:10.959Z,93.32
2022-07-26T03:52:37.835Z,93.78
2022-07-26T03:55:25.305Z,93.64
2022-07-26T03:57:52.403Z,93.69
2022-07-26T04:00:19.029Z,93.49
2022-07-26T04:02:46.355Z,92.96
2022-07-26T04:05:12.978Z,93.71
2022-07-26T04:07:43.318Z,94.23
2022-07-26T04:10:20.275Z,93.64
2022-07-26T04:12:46.816Z,94.19
2022-07-26T04:15:13.374Z,94.24
2022-07-26T04:17:41.080Z,93.08
2022-07-26T04:20:09.648Z,93.26
2022-07-26T04:22:37.839Z,93.50
2022-07-26T04:25:06.159Z,92.94
2022-07-26T04:27:33.192Z,92.32
2022-07-26T04:29:59.936Z,92.93
2022-07-26T04:32:26.633Z,93.56
2022-07-26T04:34:53.354Z,93.01
2022-07-26T04:37:19.995Z,93.39
2022-07-26T04:39:48.438Z,92.97
2022-07-26T04:42:18.337Z,93.39
2022-07-26T04:44:44.813Z,92.48
2022-07-26T04:47:11.445Z,92.57
2022-07-26T04:49:37.893Z,92.15
2022-07-26T04:52:04.634Z,91.72
2022-07-26T04:54:31.185Z,91.40
2022-07-26T04:56:57.742Z,92.34
2022-07-26T04:59:24.209Z,90.73
2022-07-26T05:01:50.790Z,90.71
2022-07-26T05:04:17.304Z,91.89
2022-07-26T05:06:43.826Z,92.31
2022-07-26T05:09:10.828Z,90.60
2022-07-26T05:11:37.580Z,91.26
2022-07-26T05:14:04.492Z,91.67
2022-07-26T05:16:31.470Z,91.81
2022-07-26T05:18:58.078Z,90.93
2022-07-26T05:21:24.530Z,90.19
2022-07-26T05:23:51.043Z,90.28
2022-07-26T05:26:17.558Z,90.00
2022-07-26T05:28:44.014Z,90.36
2022-07-26T05:31:10.694Z,89.89
2022-07-26T05:33:37.492Z,89.71
2022-07-26T05:36:04.366Z,89.23
2022-07-26T05:38:30.907Z,89.29
2022-07-26T05:40:57.444Z,87.85
2022-07-26T05:43:23.897Z,86.61
2022-07-26T05:45:50.464Z,86.43
2022-07-26T05:48:16.893Z,87.76
2022-07-26T05:50:44.252Z,86.51
2022-07-26T05:53:10.861Z,87.55
2022-07-26T05:55:37.291Z,84.71
2022-07-26T05:58:03.900Z,86.56
2022-07-26T06:00:30.488Z,87.19
2022-07-26T06:02:57.998Z,87.10
2022-07-26T06:05:24.726Z,87.45
2022-07-26T06:07:51.309Z,86.85
2022-07-26T06:10:17.781Z,86.71
2022-07-26T06:12:44.781Z,86.53
2022-07-26T06:15:15.254Z,86.59
2022-07-26T06:17:42.682Z,84.98
2022-07-26T06:20:09.964Z,85.61
2022-07-26T06:22:36.553Z,85.58
2022-07-26T06:25:03.586Z,85.32
2022-07-26T06:27:32.127Z,84.68
2022-07-26T06:29:58.660Z,84.36
2022-07-26T06:32:25.101Z,83.24
2022-07-26T06:34:51.675Z,82.02
2022-07-26T06:37:18.154Z,81.78
2022-07-26T06:39:44.694Z,81.32
2022-07-26T06:42:11.175Z,78.22
2022-07-26T06:44:39.800Z,78.73
2022-07-26T06:47:06.546Z,80.06
2022-07-26T06:49:33.212Z,80.55
2022-07-26T06:52:00.140Z,80.37
2022-07-26T06:54:27.635Z,80.79
2022-07-26T06:56:54.224Z,78.47
2022-07-26T06:59:20.827Z,78.98
2022-07-26T07:01:55.401Z,75.83
2022-07-26T07:04:29.657Z,75.80
2022-07-26T07:06:57.538Z,72.34
2022-07-26T07:09:24.577Z,71.22
2022-07-26T07:11:56.194Z,69.74
2022-07-26T07:14:26.986Z,70.21
2022-07-26T07:16:53.589Z,69.38
2022-07-26T07:19:20.252Z,64.99
2022-07-26T07:21:46.903Z,65.14
2022-07-26T07:24:13.619Z,65.82
2022-07-26T07:26:41.071Z,66.75
2022-07-26T07:29:10.157Z,65.94
2022-07-26T07:31:48.125Z,65.14
2022-07-26T07:34:16.510Z,63.88
2022-07-26T07:36:43.209Z,63.94
2022-07-26T07:39:15.625Z,61.81
2022-07-26T07:41:48.661Z,58.74
2022-07-26T07:44:15.820Z,60.84
2022-07-26T07:46:42.709Z,59.30
2022-07-26T07:49:10.839Z,58.17
2022-07-26T07:51:38.062Z,56.59
2022-07-26T07:54:05.786Z,55.47
2022-07-26T07:56:33.423Z,56.29
2022-07-26T07:59:00.327Z,54.58
2022-07-26T08:01:39.643Z,54.81
2022-07-26T08:04:07.946Z,55.53
2022-07-26T08:06:34.756Z,54.50
2022-07-26T08:09:01.553Z,55.69
2022-07-26T08:11:30.688Z,55.61
2022-07-26T08:14:00.444Z,54.55
2022-07-26T08:16:27.319Z,55.92
2022-07-26T08:18:57.173Z,54.70
2022-07-26T08:21:35.464Z,52.58
2022-07-26T08:24:02.707Z,52.08
2022-07-26T08:26:29.473Z,51.78
2022-07-26T08:28:59.652Z,51.61
2022-07-26T08:31:28.324Z,51.58
2022-07-26T08:33:55.236Z,51.79
2022-07-26T08:36:22.013Z,51.30
2022-07-26T08:38:48.706Z,49.32
2022-07-26T08:41:17.562Z,51.68
2022-07-26T08:43:51.706Z,47.26
2022-07-26T08:46:28.002Z,46.52
2022-07-26T08:48:56.557Z,46.26
2022-07-26T08:51:25.098Z,47.15
2022-07-26T08:53:58.036Z,48.14
2022-07-26T08:56:30.638Z,47.91
2022-07-26T08:58:57.386Z,48.80
2022-07-26T09:01:24.085Z,47.70
2022-07-26T09:03:50.945Z,46.22
2022-07-26T09:06:22.609Z,47.74
2022-07-26T09:08:53.405Z,49.52
2022-07-26T09:11:33.366Z,48.22
2022-07-26T09:14:02.517Z,47.97
2022-07-26T09:16:30.073Z,47.26
2022-07-26T09:19:22.189Z,47.50
2022-07-26T09:21:49.264Z,47.51
2022-07-26T09:24:35.798Z,47.13
2022-07-26T09:27:04.981Z,47.02
2022-07-26T09:29:42.753Z,47.74
2022-07-26T09:32:11.156Z,49.01
2022-07-26T09:34:48.081Z,47.15
2022-07-26T09:37:32.255Z,45.38
2022-07-26T09:40:01.409Z,44.07
2022-07-26T09:42:29.573Z,44.09
2022-07-26T09:44:58.234Z,43.20
2022-07-26T09:47:39.667Z,43.26
2022-07-26T09:50:21.030Z,44.07
2022-07-26T09:53:11.077Z,43.22
2022-07-26T09:55:55.837Z,44.66
2022-07-26T09:58:24.473Z,45.65
2022-07-26T10:00:51.232Z,45.84
2022-07-26T10:03:17.965Z,46.31
2022-07-26T10:05:44.631Z,46.48
2022-07-26T10:08:12.737Z,47.22
2022-07-26T10:10:50.965Z,46.95
2022-07-26T10:13:18.003Z,47.53
2022-07-26T10:15:47.635Z,46.38
2022-07-26T10:18:36.705Z,46.93
2022-07-26T10:21:16.675Z,47.62
2022-07-26T10:23:45.840Z,49.38
2022-07-26T10:26:32.238Z,49.97
2022-07-26T10:29:16.954Z,47.11
2022-07-26T10:31:47.425Z,43.87
2022-07-26T10:34:39.490Z,42.77
2022-07-26T10:37:20.693Z,41.93
2022-07-26T10:39:47.253Z,39.49
2022-07-26T10:42:13.767Z,39.86
2022-07-26T10:44:42.474Z,39.17
2022-07-26T10:47:08.932Z,39.49
2022-07-26T10:49:38.374Z,38.55
2022-07-26T10:52:23.147Z,37.34
2022-07-26T10:54:58.970Z,37.35
2022-07-26T10:57:30.363Z,37.36
2022-07-26T10:59:57.905Z,38.08
2022-07-26T11:02:27.921Z,36.75
2022-07-26T11:05:14.978Z,34.57
2022-07-26T11:08:11.081Z,33.69
2022-07-26T11:10:37.503Z,34.30
2022-07-26T11:13:18.754Z,34.21
2022-07-26T11:15:50.901Z,34.51
2022-07-26T11:18:27.744Z,36.47
2022-07-26T11:20:55.997Z,36.72
2022-07-26T11:23:28.302Z,38.05
2022-07-26T11:26:19.494Z,38.63
2022-07-26T11:28:50.646Z,39.02
2022-07-26T11:31:20.046Z,38.79
2022-07-26T11:33:49.089Z,37.58
2022-07-26T11:36:15.606Z,36.04
2022-07-26T11:38:48.324Z,35.58
2022-07-26T11:41:18.839Z,35.85
2022-07-26T11:43:45.362Z,36.45
2022-07-26T11:46:12.114Z,36.63
2022-07-26T11:48:45.354Z,36.57
2022-07-26T11:51:13.483Z,35.88
2022-07-26T11:53:40.160Z,35.36
2022-07-26T11:56:14.887Z,35.40
2022-07-26T11:58:42.733Z,35.92
2022-07-26T12:01:09.949Z,35.39
2022-07-26T12:03:41.035Z,37.46
2022-07-26T12:06:10.465Z,39.92
2022-07-26T12:08:46.372Z,38.96
2022-07-26T12:11:15.494Z,38.68
2022-07-26T12:13:55.322Z,38.19
2022-07-26T12:16:45.633Z,37.87
2022-07-26T12:19:18.397Z,38.68
2022-07-26T12:21:51.215Z,38.04
2022-07-26T12:24:43.518Z,38.56
2022-07-26T12:27:11.809Z,37.97
2022-07-26T12:29:40.842Z,36.83
2022-07-26T12:32:12.711Z,36.25
2022-07-26T12:34:41.648Z,36.10
2022-07-26T12:37:17.479Z,36.74
2022-07-26T12:40:18.832Z,36.01
2022-07-26T12:42:51.046Z,33.80
2022-07-26T12:45:24.177Z,34.70
2022-07-26T12:47:52.771Z,35.28
2022-07-26T12:50:21.920Z,35.98
2022-07-26T12:52:48.909Z,36.89
2022-07-26T12:55:18.922Z,35.65
2022-07-26T12:57:47.586Z,36.07
2022-07-26T13:00:16.541Z,36.81
2022-07-26T13:02:44.072Z,35.09
2022-07-26T13:05:11.367Z,34.14
2022-07-26T13:07:38.832Z,33.99
2022-07-26T13:10:32.537Z,33.22
2022-07-26T13:12:53.658Z,33.37
2022-07-26T13:15:20.225Z,33.12
2022-07-26T13:17:46.726Z,33.13
2022-07-26T13:20:13.290Z,32.09
2022-07-26T13:22:42.639Z,32.41
2022-07-26T13:25:09.425Z,32.54
2022-07-26T13:27:41.469Z,33.25
2022-07-26T13:30:11.567Z,32.73
2022-07-26T13:32:38.099Z,32.04
2022-07-26T13:35:04.872Z,32.37
2022-07-26T13:37:31.984Z,31.95
2022-07-26T13:39:58.557Z,31.51
2022-07-26T13:42:25.043Z,33.42
2022-07-26T13:44:51.540Z,32.58
2022-07-26T13:47:18.003Z,32.69
2022-07-26T13:49:44.518Z,32.53
2022-07-26T13:52:15.782Z,31.48
2022-07-26T13:54:43.489Z,32.15
2022-07-26T13:57:10.107Z,31.46
2022-07-26T13:59:36.644Z,32.80
2022-07-26T14:02:04.758Z,32.73
2022-07-26T14:04:31.433Z,32.23
2022-07-26T14:06:57.991Z,32.41
2022-07-26T14:09:24.811Z,33.08
2022-07-26T14:11:52.407Z,33.22
2022-07-26T14:14:19.024Z,33.06
2022-07-26T14:16:49.344Z,32.75
2022-07-26T14:19:16.521Z,32.45
2022-07-26T14:21:48.855Z,32.67
2022-07-26T14:24:26.474Z,33.02
2022-07-26T14:26:56.846Z,32.41
2022-07-26T14:29:26.010Z,33.85
2022-07-26T14:31:52.801Z,33.03
2022-07-26T14:34:19.495Z,32.97
2022-07-26T14:36:45.985Z,33.67
2022-07-26T14:39:12.652Z,33.23
2022-07-26T14:41:39.329Z,34.38
2022-07-26T14:44:06.490Z,34.14
2022-07-26T14:46:33.141Z,33.81
2022-07-26T14:48:59.768Z,33.36
2022-07-26T14:51:26.626Z,34.35
2022-07-26T14:53:53.199Z,34.78
2022-07-26T14:56:19.824Z,34.97
2022-07-26T14:58:46.325Z,35.00
2022-07-26T15:01:13.013Z,34.48
2022-07-26T15:03:39.698Z,34.46
2022-07-26T15:06:06.235Z,34.16
2022-07-26T15:08:32.754Z,34.87
2022-07-26T15:10:59.382Z,34.28
2022-07-26T15:13:25.899Z,35.01
2022-07-26T15:15:52.609Z,33.79
2022-07-26T15:18:19.157Z,34.59
2022-07-26T15:20:45.633Z,34.30
2022-07-26T15:23:15.100Z,35.40
2022-07-26T15:25:42.094Z,35.77
2022-07-26T15:28:08.713Z,34.71
2022-07-26T15:30:35.786Z,34.41
2022-07-26T15:33:02.687Z,34.21
2022-07-26T15:35:29.807Z,34.01
2022-07-26T15:37:56.869Z,34.59
2022-07-26T15:40:23.531Z,33.65
2022-07-26T15:42:52.154Z,33.97
2022-07-26T15:45:20.717Z,34.59
2022-07-26T15:48:03.328Z,34.56
2022-07-26T15:50:34.780Z,33.15
2022-07-26T15:53:01.381Z,32.84
2022-07-26T15:55:28.158Z,32.62
2022-07-26T15:57:54.799Z,32.36
2022-07-26T16:00:21.361Z,32.22
2022-07-26T16:02:47.948Z,31.77
2022-07-26T16:05:14.639Z,32.07
2022-07-26T16:07:41.958Z,31.94
2022-07-26T16:10:10.546Z,32.98
2022-07-26T16:12:37.149Z,33.54
2022-07-26T16:15:07.959Z,32.89
2022-07-26T16:17:34.624Z,33.05
2022-07-26T16:20:02.260Z,33.08
2022-07-26T16:22:28.909Z,33.13
2022-07-26T16:24:55.443Z,33.44
2022-07-26T16:27:22.016Z,33.55
2022-07-26T16:29:52.129Z,33.50
2022-07-26T16:32:21.001Z,33.59
2022-07-26T16:34:47.521Z,34.32
2022-07-26T16:37:14.198Z,34.72
2022-07-26T16:39:40.719Z,34.99
2022-07-26T16:42:07.661Z,34.72
2022-07-26T16:44:36.011Z,35.04
2022-07-26T16:47:03.763Z,35.63
2022-07-26T16:49:30.597Z,35.72
2022-07-26T16:51:57.645Z,36.28
2022-07-26T16:54:24.625Z,36.61
2022-07-26T16:56:51.118Z,36.95
2022-07-26T16:59:18.149Z,37.43
2022-07-26T17:01:44.994Z,36.81
2022-07-26T17:04:11.544Z,37.24
2022-07-26T17:06:38.130Z,36.88
2022-07-26T17:09:04.674Z,37.43
2022-07-26T17:11:31.229Z,37.14
2022-07-26T17:13:58.085Z,36.59
2022-07-26T17:16:25.032Z,37.18
2022-07-26T17:18:53.344Z,37.75
2022-07-26T17:21:20.425Z,38.30
2022-07-26T17:23:47.106Z,37.28
2022-07-26T17:26:13.939Z,38.10
2022-07-26T17:28:40.920Z,38.10
2022-07-26T17:31:07.480Z,37.03
2022-07-26T17:33:34.116Z,37.09
2022-07-26T17:36:03.319Z,36.77
2022-07-26T17:38:33.445Z,37.36
2022-07-26T17:41:00.747Z,37.66
2022-07-26T17:43:36.704Z,38.21
2022-07-26T17:46:04.002Z,37.55
2022-07-26T17:48:30.584Z,37.34
2022-07-26T17:50:57.161Z,37.90
2022-07-26T17:53:34.610Z,38.00
2022-07-26T17:56:02.289Z,38.06
2022-07-26T17:58:28.881Z,38.41
2022-07-26T18:00:55.454Z,38.21
2022-07-26T18:03:23.125Z,38.84
2022-07-26T18:05:50.534Z,38.54
2022-07-26T18:08:17.514Z,38.88
2022-07-26T18:10:48.983Z,39.00
2022-07-26T18:13:17.744Z,39.24
2022-07-26T18:15:44.275Z,39.35
2022-07-26T18:18:10.979Z,39.77
2022-07-26T18:20:37.598Z,40.19
2022-07-26T18:23:03.977Z,39.98
2022-07-26T18:25:30.538Z,40.30
2022-07-26T18:27:56.987Z,40.34
2022-07-26T18:30:23.643Z,40.56
2022-07-26T18:32:50.259Z,41.11
2022-07-26T18:35:16.808Z,41.19
2022-07-26T18:37:43.282Z,41.33
2022-07-26T18:40:10.234Z,41.92
2022-07-26T18:42:36.768Z,41.73
2022-07-26T18:45:03.525Z,41.89
2022-07-26T18:47:30.071Z,41.63
2022-07-26T18:49:56.586Z,41.93
2022-07-26T18:52:31.584Z,42.05
2022-07-26T18:54:59.867Z,41.93
2022-07-26T18:57:26.396Z,42.23
2022-07-26T18:59:52.813Z,42.90
2022-07-26T19:02:19.432Z,43.21
2022-07-26T19:04:46.059Z,43.60
2022-07-26T19:07:12.747Z,44.19
2022-07-26T19:09:39.396Z,44.03
2022-07-26T19:12:06.042Z,44.19
2022-07-26T19:14:32.703Z,44.23
2022-07-26T19:16:59.337Z,44.25
2022-07-26T19:19:25.936Z,44.91
2022-07-26T19:21:52.599Z,45.02
2022-07-26T19:24:19.221Z,45.22
2022-07-26T19:26:45.739Z,45.50
2022-07-26T19:29:12.836Z,47.22
2022-07-26T19:31:41.938Z,48.08
2022-07-26T19:34:08.663Z,49.35
2022-07-26T19:36:35.408Z,49.70
2022-07-26T19:39:02.268Z,49.60
2022-07-26T19:41:28.937Z,49.96
2022-07-26T19:43:55.546Z,50.32
2022-07-26T19:46:22.305Z,50.54
2022-07-26T19:48:49.086Z,50.79
2022-07-26T19:51:15.804Z,51.10
2022-07-26T19:53:44.664Z,51.43
2022-07-26T19:56:11.525Z,51.04
2022-07-26T19:58:38.135Z,51.72
2022-07-26T20:01:05.026Z,51.23
2022-07-26T20:03:32.211Z,50.74
2022-07-26T20:05:59.848Z,50.03
2022-07-26T20:08:26.484Z,51.08
2022-07-26T20:10:53.045Z,52.11
2022-07-26T20:13:19.706Z,51.59
2022-07-26T20:15:49.016Z,52.24
2022-07-26T20:18:18.286Z,52.60
2022-07-26T20:20:45.008Z,52.40
2022-07-26T20:23:11.838Z,52.40
2022-07-26T20:25:38.495Z,53.05
2022-07-26T20:28:05.224Z,53.43
2022-07-26T20:30:31.961Z,53.53
2022-07-26T20:32:58.656Z,53.74
2022-07-26T20:35:25.177Z,53.53
2022-07-26T20:37:51.812Z,53.64
2022-07-26T20:40:18.749Z,53.54
2022-07-26T20:42:45.432Z,53.00
2022-07-26T20:45:14.862Z,53.56
2022-07-26T20:47:41.697Z,54.03
2022-07-26T20:50:09.697Z,54.63
2022-07-26T20:52:36.576Z,55.32
2022-07-26T20:55:03.827Z,55.42
2022-07-26T20:57:30.895Z,55.66
2022-07-26T20:59:57.584Z,56.66
2022-07-26T21:02:24.324Z,57.29
2022-07-26T21:04:51.216Z,57.33
2022-07-26T21:07:18.308Z,57.63
2022-07-26T21:09:45.023Z,57.04
2022-07-26T21:12:11.770Z,57.00
2022-07-26T21:14:38.516Z,57.50
2022-07-26T21:17:10.954Z,57.74
2022-07-26T21:19:38.315Z,58.34
2022-07-26T21:22:05.170Z,58.21
2022-07-26T21:24:31.837Z,58.80
2022-07-26T21:26:58.561Z,59.50
2022-07-26T21:29:25.159Z,59.56
2022-07-26T21:31:51.878Z,59.40
2022-07-26T21:34:19.073Z,59.96
2022-07-26T21:36:46.355Z,60.33
2022-07-26T21:39:13.921Z,60.39
2022-07-26T21:41:40.989Z,60.69
2022-07-26T21:44:07.711Z,61.11
2022-07-26T21:46:34.506Z,61.63
2022-07-26T21:49:01.291Z,61.22
2022-07-26T21:51:27.986Z,60.98
2022-07-26T21:53:54.574Z,61.03
2022-07-26T21:56:21.888Z,59.97
2022-07-26T21:58:48.744Z,60.20
2022-07-26T22:03:11.748Z,61.02
2022-07-26T22:05:38.434Z,61.21
2022-07-26T22:08:06.245Z,61.33
2022-07-26T22:10:33.851Z,61.42
2022-07-26T22:13:00.521Z,61.59
2022-07-26T22:15:27.003Z,62.50
2022-07-26T22:17:55.174Z,62.55
2022-07-26T22:20:22.660Z,61.68
2022-07-26T22:22:49.226Z,62.49
2022-07-26T22:25:15.774Z,62.15
2022-07-26T22:27:42.207Z,62.42
2022-07-26T22:30:09.248Z,62.33
2022-07-26T22:32:35.836Z,62.66
2022-07-26T22:35:02.303Z,62.44
2022-07-26T22:37:28.845Z,62.16
2022-07-26T22:39:55.366Z,62.87
2022-07-26T22:42:21.886Z,63.11
2022-07-26T22:44:48.386Z,63.20
2022-07-26T22:47:14.975Z,63.20
2022-07-26T22:49:41.543Z,64.02
2022-07-26T22:52:08.060Z,63.99
2022-07-26T22:54:34.714Z,63.93
2022-07-26T22:57:01.422Z,64.11
2022-07-26T22:59:27.899Z,63.82
2022-07-26T23:01:54.490Z,63.90
2022-07-26T23:04:21.112Z,64.58
2022-07-26T23:06:48.047Z,64.52
2022-07-26T23:09:14.847Z,65.00
2022-07-26T23:11:41.479Z,65.54
2022-07-26T23:14:08.022Z,65.45
2022-07-26T23:16:34.626Z,65.97
2022-07-26T23:19:01.176Z,65.18
2022-07-26T23:21:27.795Z,65.60
2022-07-26T23:23:54.662Z,66.12
2022-07-26T23:26:21.148Z,66.25
2022-07-26T23:28:47.592Z,66.36
2022-07-26T23:31:14.366Z,66.49
2022-07-26T23:33:52.016Z,66.77
2022-07-26T23:36:21.574Z,67.09
2022-07-26T23:38:48.010Z,67.11
2022-07-26T23:41:14.615Z,67.32
2022-07-26T23:43:41.096Z,67.29
2022-07-26T23:46:07.543Z,67.87
2022-07-26T23:48:34.061Z,67.88
2022-07-26T23:51:00.492Z,68.23
2022-07-26T23:53:27.361Z,68.32
2022-07-26T23:55:54.094Z,68.75
2022-07-26T23:58:20.746Z,69.68
